sensor_id;sensor_type;location;lat;lon;timestamp;pressure;altitude;pressure_sealevel;temperature;humidity
70141;BME280;57508;43.086;0.136;2022-09-03T00:01:17;95733.78;;;27.74;42.08
70141;BME280;57508;43.086;0.136;2022-09-03T00:03:51;95730.63;;;27.79;42.14
70141;BME280;57508;43.086;0.136;2022-09-03T00:06:25;95729.78;;;27.89;42.47
70141;BME280;57508;43.086;0.136;2022-09-03T00:09:27;95732.88;;;27.88;41.38
70141;BME280;57508;43.086;0.136;2022-09-03T00:12:12;95727.38;;;27.95;41.37
70141;BME280;57508;43.086;0.136;2022-09-03T00:15:00;95720.16;;;27.77;42.71
70141;BME280;57508;43.086;0.136;2022-09-03T00:17:33;95708.75;;;27.97;42.47
70141;BME280;57508;43.086;0.136;2022-09-03T00:22:49;95704.78;;;28.09;41.69
70141;BME280;57508;43.086;0.136;2022-09-03T00:25:22;95700.97;;;27.99;41.96
70141;BME280;57508;43.086;0.136;2022-09-03T00:27:51;95706.13;;;27.90;42.66
70141;BME280;57508;43.086;0.136;2022-09-03T00:30:19;95711.66;;;27.75;42.73
70141;BME280;57508;43.086;0.136;2022-09-03T00:35:24;95719.88;;;27.64;42.80
70141;BME280;57508;43.086;0.136;2022-09-03T00:37:54;95720.66;;;27.65;42.80
70141;BME280;57508;43.086;0.136;2022-09-03T00:40:47;95723.47;;;27.43;43.49
70141;BME280;57508;43.086;0.136;2022-09-03T00:46:10;95718.25;;;27.74;43.22
70141;BME280;57508;43.086;0.136;2022-09-03T00:54:22;95717.78;;;27.26;44.11
70141;BME280;57508;43.086;0.136;2022-09-03T00:57:12;95717.13;;;27.04;45.17
70141;BME280;57508;43.086;0.136;2022-09-03T01:25:52;95697.88;;;27.48;43.54
70141;BME280;57508;43.086;0.136;2022-09-03T01:28:43;95699.44;;;27.49;43.87
70141;BME280;57508;43.086;0.136;2022-09-03T01:31:44;95705.34;;;27.29;44.04
70141;BME280;57508;43.086;0.136;2022-09-03T01:40:18;95709.50;;;27.48;43.73
70141;BME280;57508;43.086;0.136;2022-09-03T02:00:02;95720.25;;;27.63;43.68
70141;BME280;57508;43.086;0.136;2022-09-03T02:02:28;95714.81;;;27.63;43.80
70141;BME280;57508;43.086;0.136;2022-09-03T02:05:26;95707.44;;;27.67;43.56
70141;BME280;57508;43.086;0.136;2022-09-03T02:08:00;95717.53;;;27.63;43.73
70141;BME280;57508;43.086;0.136;2022-09-03T02:10:46;95726.09;;;27.65;43.51
70141;BME280;57508;43.086;0.136;2022-09-03T02:15:47;95722.50;;;27.15;45.04
70141;BME280;57508;43.086;0.136;2022-09-03T02:18:17;95725.78;;;26.66;45.90
70141;BME280;57508;43.086;0.136;2022-09-03T02:20:44;95723.94;;;27.31;44.51
70141;BME280;57508;43.086;0.136;2022-09-03T02:23:12;95721.69;;;27.22;45.02
70141;BME280;57508;43.086;0.136;2022-09-03T02:25:41;95717.78;;;27.26;44.59
70141;BME280;57508;43.086;0.136;2022-09-03T02:28:09;95713.84;;;27.38;43.87
70141;BME280;57508;43.086;0.136;2022-09-03T02:30:35;95705.91;;;26.95;44.97
70141;BME280;57508;43.086;0.136;2022-09-03T02:33:00;95711.69;;;27.00;45.30
70141;BME280;57508;43.086;0.136;2022-09-03T02:35:26;95717.41;;;27.24;44.56
70141;BME280;57508;43.086;0.136;2022-09-03T02:37:52;95722.63;;;27.53;43.92
70141;BME280;57508;43.086;0.136;2022-09-03T02:40:18;95714.16;;;26.66;46.25
70141;BME280;57508;43.086;0.136;2022-09-03T02:42:45;95708.34;;;26.71;46.17
70141;BME280;57508;43.086;0.136;2022-09-03T02:45:26;95700.72;;;27.30;44.30
70141;BME280;57508;43.086;0.136;2022-09-03T02:47:55;95698.66;;;27.45;44.11
70141;BME280;57508;43.086;0.136;2022-09-03T02:50:22;95699.00;;;27.54;43.92
70141;BME280;57508;43.086;0.136;2022-09-03T02:52:48;95695.88;;;26.88;45.71
70141;BME280;57508;43.086;0.136;2022-09-03T02:55:13;95702.94;;;27.42;44.73
70141;BME280;57508;43.086;0.136;2022-09-03T02:57:39;95704.13;;;27.37;44.52
70141;BME280;57508;43.086;0.136;2022-09-03T03:00:05;95690.91;;;27.47;44.27
70141;BME280;57508;43.086;0.136;2022-09-03T03:02:31;95691.31;;;27.45;44.46
70141;BME280;57508;43.086;0.136;2022-09-03T03:04:56;95696.38;;;27.39;44.20
70141;BME280;57508;43.086;0.136;2022-09-03T03:07:22;95688.91;;;27.55;43.98
70141;BME280;57508;43.086;0.136;2022-09-03T03:09:47;95694.16;;;27.20;44.78
70141;BME280;57508;43.086;0.136;2022-09-03T03:12:13;95693.44;;;27.16;45.32
70141;BME280;57508;43.086;0.136;2022-09-03T03:14:39;95683.66;;;27.33;44.55
70141;BME280;57508;43.086;0.136;2022-09-03T03:17:05;95678.03;;;26.98;46.02
70141;BME280;57508;43.086;0.136;2022-09-03T03:19:30;95679.38;;;27.32;44.49
70141;BME280;57508;43.086;0.136;2022-09-03T03:21:56;95679.91;;;27.12;45.02
70141;BME280;57508;43.086;0.136;2022-09-03T03:24:21;95676.97;;;26.70;46.45
70141;BME280;57508;43.086;0.136;2022-09-03T03:26:46;95675.94;;;26.34;47.15
70141;BME280;57508;43.086;0.136;2022-09-03T03:29:16;95673.13;;;26.67;46.30
70141;BME280;57508;43.086;0.136;2022-09-03T03:31:42;95679.56;;;26.95;45.71
70141;BME280;57508;43.086;0.136;2022-09-03T03:34:07;95673.75;;;26.97;45.68
70141;BME280;57508;43.086;0.136;2022-09-03T03:36:34;95674.03;;;27.17;44.92
70141;BME280;57508;43.086;0.136;2022-09-03T03:39:00;95680.22;;;27.21;45.11
70141;BME280;57508;43.086;0.136;2022-09-03T03:43:56;95661.16;;;27.32;44.63
70141;BME280;57508;43.086;0.136;2022-09-03T03:46:23;95657.88;;;26.95;45.25
70141;BME280;57508;43.086;0.136;2022-09-03T03:48:49;95655.03;;;27.21;45.01
70141;BME280;57508;43.086;0.136;2022-09-03T03:51:15;95650.44;;;27.14;44.70
70141;BME280;57508;43.086;0.136;2022-09-03T03:53:40;95640.31;;;27.22;45.33
70141;BME280;57508;43.086;0.136;2022-09-03T03:56:08;95647.00;;;27.06;45.43
70141;BME280;57508;43.086;0.136;2022-09-03T03:58:35;95644.34;;;26.99;45.35
70141;BME280;57508;43.086;0.136;2022-09-03T04:01:13;95651.63;;;27.09;45.35
70141;BME280;57508;43.086;0.136;2022-09-03T04:03:39;95659.34;;;25.99;47.68
70141;BME280;57508;43.086;0.136;2022-09-03T04:06:06;95652.81;;;25.79;48.95
70141;BME280;57508;43.086;0.136;2022-09-03T04:08:37;95655.09;;;26.02;48.66
70141;BME280;57508;43.086;0.136;2022-09-03T04:11:05;95646.84;;;26.57;46.61
70141;BME280;57508;43.086;0.136;2022-09-03T04:13:32;95649.19;;;26.51;46.23
70141;BME280;57508;43.086;0.136;2022-09-03T04:16:06;95652.00;;;26.07;47.55
70141;BME280;57508;43.086;0.136;2022-09-03T04:18:33;95650.66;;;26.70;46.15
70141;BME280;57508;43.086;0.136;2022-09-03T04:21:07;95652.84;;;26.94;45.69
70141;BME280;57508;43.086;0.136;2022-09-03T04:23:33;95638.13;;;26.98;45.21
70141;BME280;57508;43.086;0.136;2022-09-03T04:25:59;95635.28;;;27.20;44.94
70141;BME280;57508;43.086;0.136;2022-09-03T04:28:24;95635.44;;;26.91;45.72
70141;BME280;57508;43.086;0.136;2022-09-03T04:30:50;95628.63;;;27.29;44.78
70141;BME280;57508;43.086;0.136;2022-09-03T04:33:15;95619.28;;;27.37;44.33
70141;BME280;57508;43.086;0.136;2022-09-03T04:35:41;95623.53;;;27.34;44.84
70141;BME280;57508;43.086;0.136;2022-09-03T04:38:07;95619.38;;;27.22;44.82
70141;BME280;57508;43.086;0.136;2022-09-03T04:40:32;95611.75;;;27.06;45.15
70141;BME280;57508;43.086;0.136;2022-09-03T04:42:58;95613.13;;;27.29;44.80
70141;BME280;57508;43.086;0.136;2022-09-03T04:45:24;95610.16;;;26.26;46.74
70141;BME280;57508;43.086;0.136;2022-09-03T04:48:03;95619.34;;;26.62;46.51
70141;BME280;57508;43.086;0.136;2022-09-03T04:50:31;95624.16;;;26.96;45.29
70141;BME280;57508;43.086;0.136;2022-09-03T04:53:01;95617.91;;;26.35;46.95
70141;BME280;57508;43.086;0.136;2022-09-03T04:55:27;95617.47;;;27.16;45.23
70141;BME280;57508;43.086;0.136;2022-09-03T04:57:58;95615.00;;;27.36;44.25
70141;BME280;57508;43.086;0.136;2022-09-03T05:00:23;95615.72;;;26.87;45.24
70141;BME280;57508;43.086;0.136;2022-09-03T05:02:48;95613.53;;;26.63;46.26
70141;BME280;57508;43.086;0.136;2022-09-03T05:05:16;95615.44;;;26.63;46.07
70141;BME280;57508;43.086;0.136;2022-09-03T05:07:42;95618.63;;;26.43;46.97
70141;BME280;57508;43.086;0.136;2022-09-03T05:10:09;95614.44;;;27.10;44.79
70141;BME280;57508;43.086;0.136;2022-09-03T05:12:47;95613.00;;;26.83;46.10
70141;BME280;57508;43.086;0.136;2022-09-03T05:15:21;95613.16;;;27.25;44.45
70141;BME280;57508;43.086;0.136;2022-09-03T05:17:46;95603.78;;;26.70;46.01
70141;BME280;57508;43.086;0.136;2022-09-03T05:20:12;95608.56;;;27.19;44.55
70141;BME280;57508;43.086;0.136;2022-09-03T05:22:38;95606.16;;;27.28;44.69
70141;BME280;57508;43.086;0.136;2022-09-03T05:25:04;95603.41;;;26.75;45.44
70141;BME280;57508;43.086;0.136;2022-09-03T05:27:30;95620.13;;;27.26;44.55
70141;BME280;57508;43.086;0.136;2022-09-03T05:29:55;95616.63;;;27.30;44.37
70141;BME280;57508;43.086;0.136;2022-09-03T05:32:21;95620.78;;;27.42;43.70
70141;BME280;57508;43.086;0.136;2022-09-03T05:34:46;95613.91;;;27.30;44.08
70141;BME280;57508;43.086;0.136;2022-09-03T05:37:12;95619.34;;;27.30;43.83
70141;BME280;57508;43.086;0.136;2022-09-03T05:39:37;95624.94;;;27.00;44.46
70141;BME280;57508;43.086;0.136;2022-09-03T05:42:03;95627.50;;;27.26;44.33
70141;BME280;57508;43.086;0.136;2022-09-03T05:44:28;95620.69;;;27.52;43.87
70141;BME280;57508;43.086;0.136;2022-09-03T05:46:54;95624.50;;;27.66;43.73
70141;BME280;57508;43.086;0.136;2022-09-03T05:49:19;95619.38;;;27.72;43.78
70141;BME280;57508;43.086;0.136;2022-09-03T05:51:45;95629.84;;;27.73;43.44
70141;BME280;57508;43.086;0.136;2022-09-03T05:54:10;95629.84;;;27.73;43.05
70141;BME280;57508;43.086;0.136;2022-09-03T05:56:37;95620.59;;;27.67;43.71
70141;BME280;57508;43.086;0.136;2022-09-03T05:59:08;95624.81;;;27.75;43.32
70141;BME280;57508;43.086;0.136;2022-09-03T06:01:35;95624.72;;;27.83;43.36
70141;BME280;57508;43.086;0.136;2022-09-03T06:04:12;95632.03;;;27.86;43.56
70141;BME280;57508;43.086;0.136;2022-09-03T06:06:41;95637.84;;;27.88;43.27
70141;BME280;57508;43.086;0.136;2022-09-03T06:09:15;95639.84;;;27.84;43.24
70141;BME280;57508;43.086;0.136;2022-09-03T06:11:42;95631.69;;;27.84;43.47
70141;BME280;57508;43.086;0.136;2022-09-03T06:14:10;95632.81;;;27.90;43.42
70141;BME280;57508;43.086;0.136;2022-09-03T06:16:38;95635.91;;;27.88;43.52
70141;BME280;57508;43.086;0.136;2022-09-03T06:19:04;95643.03;;;27.71;43.34
70141;BME280;57508;43.086;0.136;2022-09-03T06:21:31;95636.72;;;27.85;43.10
70141;BME280;57508;43.086;0.136;2022-09-03T06:23:57;95636.66;;;27.93;43.37
70141;BME280;57508;43.086;0.136;2022-09-03T06:26:23;95646.88;;;27.77;43.43
70141;BME280;57508;43.086;0.136;2022-09-03T06:28:49;95648.91;;;27.62;43.87
70141;BME280;57508;43.086;0.136;2022-09-03T06:31:17;95648.41;;;27.78;43.65
70141;BME280;57508;43.086;0.136;2022-09-03T06:33:43;95661.19;;;28.20;43.16
70141;BME280;57508;43.086;0.136;2022-09-03T06:36:11;95661.19;;;28.20;43.29
70141;BME280;57508;43.086;0.136;2022-09-03T06:38:38;95660.84;;;28.18;43.15
70141;BME280;57508;43.086;0.136;2022-09-03T06:41:08;95661.72;;;28.46;42.99
70141;BME280;57508;43.086;0.136;2022-09-03T06:43:38;95664.84;;;28.45;42.70
70141;BME280;57508;43.086;0.136;2022-09-03T06:46:10;95662.97;;;28.38;42.61
70141;BME280;57508;43.086;0.136;2022-09-03T06:48:36;95664.06;;;28.44;42.61
70141;BME280;57508;43.086;0.136;2022-09-03T06:51:10;95659.09;;;28.70;42.05
70141;BME280;57508;43.086;0.136;2022-09-03T06:53:38;95651.34;;;28.69;41.78
70141;BME280;57508;43.086;0.136;2022-09-03T06:56:07;95650.44;;;28.48;42.21
70141;BME280;57508;43.086;0.136;2022-09-03T06:58:38;95645.97;;;27.92;43.98
70141;BME280;57508;43.086;0.136;2022-09-03T07:01:09;95648.72;;;28.26;42.66
70141;BME280;57508;43.086;0.136;2022-09-03T07:03:36;95642.44;;;28.33;42.72
70141;BME280;57508;43.086;0.136;2022-09-03T07:06:10;95643.59;;;28.67;42.34
70141;BME280;57508;43.086;0.136;2022-09-03T07:08:36;95640.69;;;28.82;41.78
70141;BME280;57508;43.086;0.136;2022-09-03T07:11:04;95645.50;;;28.70;41.53
70141;BME280;57508;43.086;0.136;2022-09-03T07:13:36;95651.34;;;27.99;41.86
70141;BME280;57508;43.086;0.136;2022-09-03T07:16:06;95658.31;;;28.00;42.54
70141;BME280;57508;43.086;0.136;2022-09-03T07:18:32;95650.81;;;28.50;41.99
70141;BME280;57508;43.086;0.136;2022-09-03T07:21:03;95654.63;;;28.87;41.40
70141;BME280;57508;43.086;0.136;2022-09-03T07:23:29;95661.13;;;28.97;41.01
70141;BME280;57508;43.086;0.136;2022-09-03T07:25:56;95656.69;;;29.35;40.79
70141;BME280;57508;43.086;0.136;2022-09-03T07:28:22;95652.50;;;29.54;40.77
70141;BME280;57508;43.086;0.136;2022-09-03T07:30:49;95653.47;;;29.67;40.17
70141;BME280;57508;43.086;0.136;2022-09-03T07:33:15;95656.84;;;29.75;40.57
70141;BME280;57508;43.086;0.136;2022-09-03T07:35:41;95657.09;;;29.61;40.44
70141;BME280;57508;43.086;0.136;2022-09-03T07:38:07;95661.94;;;29.73;39.87
70141;BME280;57508;43.086;0.136;2022-09-03T07:40:34;95659.66;;;29.92;39.50
70141;BME280;57508;43.086;0.136;2022-09-03T07:42:59;95653.91;;;30.10;39.57
70141;BME280;57508;43.086;0.136;2022-09-03T07:45:27;95656.66;;;30.30;39.76
70141;BME280;57508;43.086;0.136;2022-09-03T07:47:53;95670.44;;;30.23;39.54
70141;BME280;57508;43.086;0.136;2022-09-03T07:50:18;95660.47;;;30.13;39.19
70141;BME280;57508;43.086;0.136;2022-09-03T07:52:44;95663.66;;;30.32;39.02
70141;BME280;57508;43.086;0.136;2022-09-03T07:55:12;95665.75;;;30.44;37.57
70141;BME280;57508;43.086;0.136;2022-09-03T07:57:38;95661.63;;;30.56;37.87
70141;BME280;57508;43.086;0.136;2022-09-03T08:00:04;95670.91;;;30.79;38.06
70141;BME280;57508;43.086;0.136;2022-09-03T08:02:32;95670.13;;;30.99;38.47
70141;BME280;57508;43.086;0.136;2022-09-03T08:04:57;95679.81;;;31.20;37.24
70141;BME280;57508;43.086;0.136;2022-09-03T08:07:23;95670.72;;;31.43;37.95
70141;BME280;57508;43.086;0.136;2022-09-03T08:09:48;95674.56;;;31.46;37.07
70141;BME280;57508;43.086;0.136;2022-09-03T08:12:14;95671.13;;;31.59;36.20
70141;BME280;57508;43.086;0.136;2022-09-03T08:14:40;95667.78;;;32.01;35.70
70141;BME280;57508;43.086;0.136;2022-09-03T08:17:05;95680.25;;;32.02;35.05
70141;BME280;57508;43.086;0.136;2022-09-03T08:19:32;95694.00;;;32.28;34.62
70141;BME280;57508;43.086;0.136;2022-09-03T08:21:57;95688.03;;;32.63;34.02
70141;BME280;57508;43.086;0.136;2022-09-03T08:24:24;95685.91;;;32.83;34.14
70141;BME280;57508;43.086;0.136;2022-09-03T08:26:50;95692.41;;;33.16;34.03
70141;BME280;57508;43.086;0.136;2022-09-03T08:29:16;95694.22;;;33.71;33.57
70141;BME280;57508;43.086;0.136;2022-09-03T08:31:41;95683.78;;;34.50;32.11
70141;BME280;57508;43.086;0.136;2022-09-03T08:34:08;95686.00;;;34.42;29.25
70141;BME280;57508;43.086;0.136;2022-09-03T08:36:37;95687.81;;;34.80;30.21
70141;BME280;57508;43.086;0.136;2022-09-03T08:39:05;95677.69;;;35.09;31.00
70141;BME280;57508;43.086;0.136;2022-09-03T08:42:01;95683.13;;;35.22;30.97
70141;BME280;57508;43.086;0.136;2022-09-03T08:47:17;95681.75;;;35.17;30.49
70141;BME280;57508;43.086;0.136;2022-09-03T08:55:24;95674.44;;;35.83;28.64
70141;BME280;57508;43.086;0.136;2022-09-03T08:58:15;95682.09;;;35.79;28.73
70141;BME280;57508;43.086;0.136;2022-09-03T09:01:03;95688.66;;;37.09;27.75
70141;BME280;57508;43.086;0.136;2022-09-03T09:03:46;95686.56;;;37.72;27.00
70141;BME280;57508;43.086;0.136;2022-09-03T09:09:32;95674.41;;;38.58;25.72
70141;BME280;57508;43.086;0.136;2022-09-03T09:12:24;95666.00;;;39.12;23.31
70141;BME280;57508;43.086;0.136;2022-09-03T09:17:36;95682.09;;;39.65;24.79
70141;BME280;57508;43.086;0.136;2022-09-03T09:23:04;95680.31;;;39.47;23.17
70141;BME280;57508;43.086;0.136;2022-09-03T09:25:31;95686.00;;;39.58;22.54
70141;BME280;57508;43.086;0.136;2022-09-03T09:30:44;95681.16;;;38.42;23.25
70141;BME280;57508;43.086;0.136;2022-09-03T09:33:11;95693.63;;;38.12;23.16
70141;BME280;57508;43.086;0.136;2022-09-03T09:35:37;95678.66;;;38.44;23.15
70141;BME280;57508;43.086;0.136;2022-09-03T09:38:06;95677.81;;;38.98;22.89
70141;BME280;57508;43.086;0.136;2022-09-03T09:40:34;95677.66;;;38.56;22.65
70141;BME280;57508;43.086;0.136;2022-09-03T09:43:07;95682.63;;;39.33;21.32
70141;BME280;57508;43.086;0.136;2022-09-03T09:45:38;95678.75;;;39.61;21.14
70141;BME280;57508;43.086;0.136;2022-09-03T09:48:29;95666.75;;;40.32;21.65
70141;BME280;57508;43.086;0.136;2022-09-03T09:51:19;95670.56;;;40.94;22.06
70141;BME280;57508;43.086;0.136;2022-09-03T09:53:45;95668.28;;;41.24;20.90
70141;BME280;57508;43.086;0.136;2022-09-03T09:56:24;95669.78;;;41.75;20.22
70141;BME280;57508;43.086;0.136;2022-09-03T09:59:04;95661.31;;;41.96;20.26
70141;BME280;57508;43.086;0.136;2022-09-03T10:01:30;95657.16;;;42.46;20.32
70141;BME280;57508;43.086;0.136;2022-09-03T10:03:58;95659.91;;;42.23;19.99
70141;BME280;57508;43.086;0.136;2022-09-03T10:06:26;95650.63;;;42.84;19.43
70141;BME280;57508;43.086;0.136;2022-09-03T10:09:16;95652.38;;;43.04;19.63
70141;BME280;57508;43.086;0.136;2022-09-03T10:11:48;95650.16;;;43.79;18.70
70141;BME280;57508;43.086;0.136;2022-09-03T10:14:44;95640.28;;;43.78;18.04
70141;BME280;57508;43.086;0.136;2022-09-03T10:17:26;95639.41;;;44.06;17.52
70141;BME280;57508;43.086;0.136;2022-09-03T10:20:04;95643.81;;;43.84;17.80
70141;BME280;57508;43.086;0.136;2022-09-03T10:23:00;95643.56;;;44.30;17.25
70141;BME280;57508;43.086;0.136;2022-09-03T10:28:04;95632.53;;;44.55;17.02
70141;BME280;57508;43.086;0.136;2022-09-03T10:30:39;95633.56;;;44.52;16.62
70141;BME280;57508;43.086;0.136;2022-09-03T10:33:16;95640.09;;;44.91;15.99
70141;BME280;57508;43.086;0.136;2022-09-03T10:35:48;95637.69;;;45.76;16.42
70141;BME280;57508;43.086;0.136;2022-09-03T10:38:17;95638.47;;;45.96;16.02
70141;BME280;57508;43.086;0.136;2022-09-03T10:43:44;95621.38;;;45.80;16.00
70141;BME280;57508;43.086;0.136;2022-09-03T10:46:21;95633.00;;;45.21;16.35
70141;BME280;57508;43.086;0.136;2022-09-03T10:52:11;95604.41;;;44.89;16.47
70141;BME280;57508;43.086;0.136;2022-09-03T10:55:28;95602.25;;;45.01;16.30
70141;BME280;57508;43.086;0.136;2022-09-03T10:57:48;95605.13;;;44.90;16.28
70141;BME280;57508;43.086;0.136;2022-09-03T11:00:16;95610.34;;;44.44;16.15
70141;BME280;57508;43.086;0.136;2022-09-03T11:03:10;95604.41;;;44.59;16.95
70141;BME280;57508;43.086;0.136;2022-09-03T11:05:56;95593.91;;;43.38;17.47
70141;BME280;57508;43.086;0.136;2022-09-03T11:08:27;95595.41;;;41.73;19.23
70141;BME280;57508;43.086;0.136;2022-09-03T11:11:01;95589.97;;;43.05;17.83
70141;BME280;57508;43.086;0.136;2022-09-03T11:13:36;95592.25;;;42.09;17.79
70141;BME280;57508;43.086;0.136;2022-09-03T11:16:14;95589.97;;;42.02;18.65
70141;BME280;57508;43.086;0.136;2022-09-03T11:18:43;95592.81;;;42.36;18.67
70141;BME280;57508;43.086;0.136;2022-09-03T11:21:13;95582.66;;;42.10;19.07
70141;BME280;57508;43.086;0.136;2022-09-03T11:23:46;95589.25;;;42.53;18.78
70141;BME280;57508;43.086;0.136;2022-09-03T11:26:18;95582.53;;;41.04;20.03
70141;BME280;57508;43.086;0.136;2022-09-03T11:33:58;95580.75;;;41.56;19.49
70141;BME280;57508;43.086;0.136;2022-09-03T11:36:34;95575.75;;;41.60;18.68
70141;BME280;57508;43.086;0.136;2022-09-03T11:39:21;95576.84;;;41.97;18.42
70141;BME280;57508;43.086;0.136;2022-09-03T11:42:03;95566.63;;;43.37;18.50
70141;BME280;57508;43.086;0.136;2022-09-03T11:44:37;95575.59;;;42.21;18.53
70141;BME280;57508;43.086;0.136;2022-09-03T11:47:14;95573.84;;;42.12;18.05
70141;BME280;57508;43.086;0.136;2022-09-03T11:49:51;95577.09;;;41.32;19.14
70141;BME280;57508;43.086;0.136;2022-09-03T11:52:28;95567.00;;;41.96;18.51
70141;BME280;57508;43.086;0.136;2022-09-03T11:54:54;95570.03;;;41.98;17.78
70141;BME280;57508;43.086;0.136;2022-09-03T11:57:28;95559.34;;;41.56;18.24
70141;BME280;57508;43.086;0.136;2022-09-03T12:00:07;95559.44;;;41.85;18.58
70141;BME280;57508;43.086;0.136;2022-09-03T12:02:36;95553.75;;;43.39;18.98
70141;BME280;57508;43.086;0.136;2022-09-03T12:08:41;95550.69;;;43.43;18.55
70141;BME280;57508;43.086;0.136;2022-09-03T12:16:40;95555.97;;;42.41;19.49
70141;BME280;57508;43.086;0.136;2022-09-03T12:18:41;95544.88;;;42.64;19.75
70141;BME280;57508;43.086;0.136;2022-09-03T12:21:08;95545.53;;;42.99;19.69
70141;BME280;57508;43.086;0.136;2022-09-03T12:23:43;95541.53;;;41.97;20.18
70141;BME280;57508;43.086;0.136;2022-09-03T12:26:23;95547.56;;;41.84;20.05
70141;BME280;57508;43.086;0.136;2022-09-03T12:28:58;95544.97;;;41.58;20.81
70141;BME280;57508;43.086;0.136;2022-09-03T12:31:29;95554.97;;;40.50;21.28
70141;BME280;57508;43.086;0.136;2022-09-03T12:34:08;95544.34;;;40.81;20.65
70141;BME280;57508;43.086;0.136;2022-09-03T12:36:42;95555.19;;;40.85;22.31
70141;BME280;57508;43.086;0.136;2022-09-03T12:39:14;95548.75;;;40.03;22.20
70141;BME280;57508;43.086;0.136;2022-09-03T12:42:06;95556.06;;;39.79;23.48
70141;BME280;57508;43.086;0.136;2022-09-03T12:47:12;95558.28;;;39.12;23.63
70141;BME280;57508;43.086;0.136;2022-09-03T12:49:41;95567.50;;;38.58;24.31
70141;BME280;57508;43.086;0.136;2022-09-03T12:52:31;95558.03;;;38.44;24.44
70141;BME280;57508;43.086;0.136;2022-09-03T12:55:00;95563.56;;;38.44;24.68
70141;BME280;57508;43.086;0.136;2022-09-03T12:57:33;95563.84;;;38.31;24.17
70141;BME280;57508;43.086;0.136;2022-09-03T13:00:05;95556.34;;;38.17;23.98
70141;BME280;57508;43.086;0.136;2022-09-03T13:03:07;95539.03;;;38.16;24.59
70141;BME280;57508;43.086;0.136;2022-09-03T13:05:35;95543.94;;;38.57;24.03
70141;BME280;57508;43.086;0.136;2022-09-03T13:08:07;95543.94;;;38.72;23.39
70141;BME280;57508;43.086;0.136;2022-09-03T13:10:36;95550.31;;;38.03;23.88
70141;BME280;57508;43.086;0.136;2022-09-03T13:13:22;95551.84;;;38.65;24.55
70141;BME280;57508;43.086;0.136;2022-09-03T13:16:06;95553.16;;;38.69;23.75
70141;BME280;57508;43.086;0.136;2022-09-03T13:27:35;95554.56;;;39.36;22.45
70141;BME280;57508;43.086;0.136;2022-09-03T13:37:48;95552.03;;;38.46;24.18
70141;BME280;57508;43.086;0.136;2022-09-03T13:40:35;95562.13;;;38.49;24.98
70141;BME280;57508;43.086;0.136;2022-09-03T13:43:08;95549.53;;;38.48;23.64
70141;BME280;57508;43.086;0.136;2022-09-03T13:45:45;95559.38;;;38.19;24.73
70141;BME280;57508;43.086;0.136;2022-09-03T13:48:17;95559.81;;;37.87;25.00
70141;BME280;57508;43.086;0.136;2022-09-03T13:51:15;95553.59;;;37.77;24.78
70141;BME280;57508;43.086;0.136;2022-09-03T13:53:56;95558.75;;;37.84;25.41
70141;BME280;57508;43.086;0.136;2022-09-03T13:56:30;95559.13;;;37.77;24.71
70141;BME280;57508;43.086;0.136;2022-09-03T13:59:22;95555.22;;;37.20;25.91
70141;BME280;57508;43.086;0.136;2022-09-03T14:04:27;95558.03;;;37.10;25.87
70141;BME280;57508;43.086;0.136;2022-09-03T14:07:02;95554.31;;;37.47;25.52
70141;BME280;57508;43.086;0.136;2022-09-03T14:09:58;95543.28;;;37.62;25.45
70141;BME280;57508;43.086;0.136;2022-09-03T14:12:48;95549.22;;;37.70;25.71
70141;BME280;57508;43.086;0.136;2022-09-03T14:15:27;95548.03;;;37.47;24.77
70141;BME280;57508;43.086;0.136;2022-09-03T14:20:26;95540.88;;;37.95;25.41
70141;BME280;57508;43.086;0.136;2022-09-03T14:25:27;95534.78;;;38.51;25.36
70141;BME280;57508;43.086;0.136;2022-09-03T14:28:17;95546.28;;;38.80;24.03
70141;BME280;57508;43.086;0.136;2022-09-03T14:33:49;95528.13;;;40.30;22.11
70141;BME280;57508;43.086;0.136;2022-09-03T14:36:29;95528.53;;;40.87;21.07
70141;BME280;57508;43.086;0.136;2022-09-03T14:39:15;95528.88;;;41.73;21.18
70141;BME280;57508;43.086;0.136;2022-09-03T14:41:58;95535.97;;;41.13;21.77
70141;BME280;57508;43.086;0.136;2022-09-03T15:01:26;95529.31;;;37.51;24.78
70141;BME280;57508;43.086;0.136;2022-09-03T15:09:22;95531.19;;;37.99;23.85
70141;BME280;57508;43.086;0.136;2022-09-03T15:12:37;95528.13;;;37.67;23.84
70141;BME280;57508;43.086;0.136;2022-09-03T15:14:52;95526.41;;;37.30;25.20
70141;BME280;57508;43.086;0.136;2022-09-03T15:22:43;95537.31;;;37.24;24.91
70141;BME280;57508;43.086;0.136;2022-09-03T15:41:20;95514.94;;;37.47;25.33
70141;BME280;57508;43.086;0.136;2022-09-03T15:43:48;95519.38;;;37.69;25.29
70141;BME280;57508;43.086;0.136;2022-09-03T15:46:36;95517.41;;;37.30;25.25
70141;BME280;57508;43.086;0.136;2022-09-03T15:49:17;95515.00;;;37.62;24.77
70141;BME280;57508;43.086;0.136;2022-09-03T15:51:58;95516.94;;;37.71;24.91
70141;BME280;57508;43.086;0.136;2022-09-03T15:54:37;95514.44;;;37.73;24.03
70141;BME280;57508;43.086;0.136;2022-09-03T15:57:25;95520.22;;;36.86;24.64
70141;BME280;57508;43.086;0.136;2022-09-03T16:00:11;95518.72;;;37.34;25.00
70141;BME280;57508;43.086;0.136;2022-09-03T16:05:46;95512.00;;;37.75;24.34
70141;BME280;57508;43.086;0.136;2022-09-03T16:08:40;95511.16;;;37.59;24.80
70141;BME280;57508;43.086;0.136;2022-09-03T16:14:12;95515.28;;;37.24;26.17
70141;BME280;57508;43.086;0.136;2022-09-03T16:19:23;95518.31;;;36.68;26.75
70141;BME280;57508;43.086;0.136;2022-09-03T16:25:03;95521.41;;;36.61;26.85
70141;BME280;57508;43.086;0.136;2022-09-03T16:36:05;95518.03;;;36.23;26.64
70141;BME280;57508;43.086;0.136;2022-09-03T16:49:34;95527.56;;;35.75;27.29
70141;BME280;57508;43.086;0.136;2022-09-03T16:55:11;95536.09;;;35.77;27.25
70141;BME280;57508;43.086;0.136;2022-09-03T17:14:20;95520.53;;;35.93;27.81
70141;BME280;57508;43.086;0.136;2022-09-03T17:16:56;95526.03;;;35.83;27.91
70141;BME280;57508;43.086;0.136;2022-09-03T17:19:33;95525.72;;;36.00;27.02
70141;BME280;57508;43.086;0.136;2022-09-03T17:24:50;95527.25;;;35.73;27.76